sensor_id;sensor_type;location;lat;lon;timestamp;pressure;altitude;pressure_sealevel;temperature;humidity
6218;BME280;3142;48.206;11.550;2023-04-04T00:01:43;96427.50;;;2.97;55.00
6218;BME280;3142;48.206;11.550;2023-04-04T00:04:09;96423.56;;;2.93;55.13
6218;BME280;3142;48.206;11.550;2023-04-04T00:06:36;96411.75;;;2.91;54.90
6218;BME280;3142;48.206;11.550;2023-04-04T00:09:08;96415.69;;;2.95;54.76
6218;BME280;3142;48.206;11.550;2023-04-04T00:11:36;96421.94;;;2.92;55.36
6218;BME280;3142;48.206;11.550;2023-04-04T00:14:02;96420.03;;;2.94;54.86
6218;BME280;3142;48.206;11.550;2023-04-04T00:16:29;96418.97;;;3.07;55.11
6218;BME280;3142;48.206;11.550;2023-04-04T00:18:56;96418.66;;;3.00;54.76
6218;BME280;3142;48.206;11.550;2023-04-04T00:21:22;96415.69;;;2.95;55.19
6218;BME280;3142;48.206;11.550;2023-04-04T00:23:51;96412.41;;;2.83;54.63
6218;BME280;3142;48.206;11.550;2023-04-04T00:26:18;96405.06;;;2.79;54.66
6218;BME280;3142;48.206;11.550;2023-04-04T00:28:46;96411.84;;;2.70;54.75
6218;BME280;3142;48.206;11.550;2023-04-04T00:31:13;96405.97;;;2.58;55.38
6218;BME280;3142;48.206;11.550;2023-04-04T00:33:40;96402.06;;;2.74;55.00
6218;BME280;3142;48.206;11.550;2023-04-04T00:36:06;96400.31;;;2.74;55.30
6218;BME280;3142;48.206;11.550;2023-04-04T00:38:33;96399.75;;;2.71;54.92
6218;BME280;3142;48.206;11.550;2023-04-04T00:40:59;96393.09;;;2.68;55.23
6218;BME280;3142;48.206;11.550;2023-04-04T00:43:26;96394.03;;;2.67;55.08
6218;BME280;3142;48.206;11.550;2023-04-04T00:45:54;96394.97;;;2.66;54.95
6218;BME280;3142;48.206;11.550;2023-04-04T00:48:20;96390.38;;;2.70;54.91
6218;BME280;3142;48.206;11.550;2023-04-04T00:50:48;96390.78;;;2.75;55.50
6218;BME280;3142;48.206;11.550;2023-04-04T00:53:15;96384.00;;;2.83;55.44
6218;BME280;3142;48.206;11.550;2023-04-04T00:55:41;96379.25;;;2.88;54.32
6218;BME280;3142;48.206;11.550;2023-04-04T00:58:08;96383.16;;;2.83;55.33
6218;BME280;3142;48.206;11.550;2023-04-04T01:00:36;96377.34;;;2.90;55.07
6218;BME280;3142;48.206;11.550;2023-04-04T01:03:04;96380.03;;;2.98;54.27
6218;BME280;3142;48.206;11.550;2023-04-04T01:05:34;96373.13;;;2.89;54.57
6218;BME280;3142;48.206;11.550;2023-04-04T01:08:00;96378.56;;;3.06;54.64
6218;BME280;3142;48.206;11.550;2023-04-04T01:10:29;96367.94;;;3.09;54.50
6218;BME280;3142;48.206;11.550;2023-04-04T01:12:55;96371.91;;;3.03;55.12
6218;BME280;3142;48.206;11.550;2023-04-04T01:15:22;96368.91;;;2.98;54.45
6218;BME280;3142;48.206;11.550;2023-04-04T01:17:49;96365.53;;;2.88;54.49
6218;BME280;3142;48.206;11.550;2023-04-04T01:20:22;96359.25;;;2.90;54.95
6218;BME280;3142;48.206;11.550;2023-04-04T01:22:50;96367.81;;;2.91;54.54
6218;BME280;3142;48.206;11.550;2023-04-04T01:25:23;96363.31;;;2.83;55.33
6218;BME280;3142;48.206;11.550;2023-04-04T01:27:51;96358.84;;;2.76;55.08
6218;BME280;3142;48.206;11.550;2023-04-04T01:30:18;96367.28;;;2.78;55.36
6218;BME280;3142;48.206;11.550;2023-04-04T01:32:48;96355.84;;;2.80;54.82
6218;BME280;3142;48.206;11.550;2023-04-04T01:35:21;96353.09;;;2.72;55.83
6218;BME280;3142;48.206;11.550;2023-04-04T01:37:55;96352.16;;;2.73;55.80
6218;BME280;3142;48.206;11.550;2023-04-04T01:40:27;96347.81;;;2.64;55.46
6218;BME280;3142;48.206;11.550;2023-04-04T01:42:59;96341.72;;;2.75;55.03
6218;BME280;3142;48.206;11.550;2023-04-04T01:45:26;96347.25;;;2.70;55.24
6218;BME280;3142;48.206;11.550;2023-04-04T01:47:54;96347.69;;;2.65;55.85
6218;BME280;3142;48.206;11.550;2023-04-04T01:50:21;96343.88;;;2.70;55.84
6218;BME280;3142;48.206;11.550;2023-04-04T01:52:48;96344.53;;;2.52;55.81
6218;BME280;3142;48.206;11.550;2023-04-04T01:55:15;96344.41;;;2.54;55.77
6218;BME280;3142;48.206;11.550;2023-04-04T01:57:43;96342.47;;;2.46;55.86
6218;BME280;3142;48.206;11.550;2023-04-04T02:00:11;96348.84;;;2.32;56.14
6218;BME280;3142;48.206;11.550;2023-04-04T02:02:38;96348.19;;;2.40;56.20
6218;BME280;3142;48.206;11.550;2023-04-04T02:05:05;96349.53;;;2.44;56.12
6218;BME280;3142;48.206;11.550;2023-04-04T02:07:31;96344.91;;;2.38;56.22
6218;BME280;3142;48.206;11.550;2023-04-04T02:09:58;96349.00;;;2.41;56.31
6218;BME280;3142;48.206;11.550;2023-04-04T02:12:25;96346.97;;;2.44;56.47
6218;BME280;3142;48.206;11.550;2023-04-04T02:14:53;96349.78;;;2.31;56.39
6218;BME280;3142;48.206;11.550;2023-04-04T02:17:19;96346.13;;;2.24;56.93
6218;BME280;3142;48.206;11.550;2023-04-04T02:19:46;96345.19;;;2.35;56.97
6218;BME280;3142;48.206;11.550;2023-04-04T02:22:13;96343.84;;;2.41;56.33
6218;BME280;3142;48.206;11.550;2023-04-04T02:24:40;96335.69;;;2.45;56.54
6218;BME280;3142;48.206;11.550;2023-04-04T02:27:06;96338.00;;;2.38;56.47
6218;BME280;3142;48.206;11.550;2023-04-04T02:29:33;96344.84;;;2.19;56.70
6218;BME280;3142;48.206;11.550;2023-04-04T02:32:00;96334.13;;;2.14;57.03
6218;BME280;3142;48.206;11.550;2023-04-04T02:34:27;96334.81;;;2.16;57.12
6218;BME280;3142;48.206;11.550;2023-04-04T02:36:53;96335.22;;;2.11;56.70
6218;BME280;3142;48.206;11.550;2023-04-04T02:39:20;96335.91;;;2.13;56.42
6218;BME280;3142;48.206;11.550;2023-04-04T02:41:46;96327.97;;;2.05;56.92
6218;BME280;3142;48.206;11.550;2023-04-04T02:44:12;96335.03;;;2.03;56.87
6218;BME280;3142;48.206;11.550;2023-04-04T02:46:39;96332.47;;;2.03;57.25
6218;BME280;3142;48.206;11.550;2023-04-04T02:49:07;96331.28;;;2.07;56.65
6218;BME280;3142;48.206;11.550;2023-04-04T02:51:33;96327.19;;;2.14;56.23
6218;BME280;3142;48.206;11.550;2023-04-04T02:54:02;96333.13;;;1.95;57.13
6218;BME280;3142;48.206;11.550;2023-04-04T02:56:29;96330.63;;;1.84;57.23
6218;BME280;3142;48.206;11.550;2023-04-04T02:58:56;96332.41;;;1.84;57.13
6218;BME280;3142;48.206;11.550;2023-04-04T03:01:23;96335.25;;;1.81;57.40
6218;BME280;3142;48.206;11.550;2023-04-04T03:03:50;96333.63;;;1.89;57.55
6218;BME280;3142;48.206;11.550;2023-04-04T03:06:17;96328.88;;;1.85;57.59
6218;BME280;3142;48.206;11.550;2023-04-04T03:08:44;96329.41;;;1.78;57.66
6218;BME280;3142;48.206;11.550;2023-04-04T03:11:10;96327.75;;;1.77;57.68
6218;BME280;3142;48.206;11.550;2023-04-04T03:13:37;96326.03;;;1.88;57.33
6218;BME280;3142;48.206;11.550;2023-04-04T03:16:04;96325.63;;;1.83;57.42
6218;BME280;3142;48.206;11.550;2023-04-04T03:18:31;96324.34;;;1.67;57.54
6218;BME280;3142;48.206;11.550;2023-04-04T03:20:58;96317.41;;;1.68;58.01
6218;BME280;3142;48.206;11.550;2023-04-04T03:23:26;96328.84;;;1.75;57.18
6218;BME280;3142;48.206;11.550;2023-04-04T03:25:53;96326.13;;;1.76;57.33
6218;BME280;3142;48.206;11.550;2023-04-04T03:28:20;96327.47;;;1.71;58.00
6218;BME280;3142;48.206;11.550;2023-04-04T03:30:46;96328.63;;;1.57;57.70
6218;BME280;3142;48.206;11.550;2023-04-04T03:33:13;96328.81;;;1.65;57.72
6218;BME280;3142;48.206;11.550;2023-04-04T03:35:40;96326.78;;;1.69;57.84
6218;BME280;3142;48.206;11.550;2023-04-04T03:38:06;96320.13;;;1.66;57.66
6218;BME280;3142;48.206;11.550;2023-04-04T03:40:34;96327.38;;;1.82;57.56
6218;BME280;3142;48.206;11.550;2023-04-04T03:43:01;96333.03;;;1.76;57.44
6218;BME280;3142;48.206;11.550;2023-04-04T03:45:27;96329.09;;;1.72;57.32
6218;BME280;3142;48.206;11.550;2023-04-04T03:47:54;96329.22;;;1.70;57.96
6218;BME280;3142;48.206;11.550;2023-04-04T03:50:20;96335.50;;;1.77;57.40
6218;BME280;3142;48.206;11.550;2023-04-04T03:52:47;96330.19;;;1.69;57.28
6218;BME280;3142;48.206;11.550;2023-04-04T03:55:13;96330.31;;;1.77;57.23
6218;BME280;3142;48.206;11.550;2023-04-04T03:57:41;96335.75;;;1.74;57.33
6218;BME280;3142;48.206;11.550;2023-04-04T04:00:08;96344.63;;;1.82;57.63
6218;BME280;3142;48.206;11.550;2023-04-04T04:02:35;96340.53;;;1.79;57.08
6218;BME280;3142;48.206;11.550;2023-04-04T04:05:01;96341.19;;;1.71;57.21
6218;BME280;3142;48.206;11.550;2023-04-04T04:07:28;96344.50;;;1.53;57.66
6218;BME280;3142;48.206;11.550;2023-04-04T04:09:55;96347.44;;;1.48;57.89
6218;BME280;3142;48.206;11.550;2023-04-04T04:12:21;96352.47;;;1.49;58.00
6218;BME280;3142;48.206;11.550;2023-04-04T04:14:49;96355.22;;;1.58;57.91
6218;BME280;3142;48.206;11.550;2023-04-04T04:17:16;96351.50;;;1.71;57.13
6218;BME280;3142;48.206;11.550;2023-04-04T04:19:42;96353.78;;;1.65;57.00
6218;BME280;3142;48.206;11.550;2023-04-04T04:22:09;96350.94;;;1.68;56.90
6218;BME280;3142;48.206;11.550;2023-04-04T04:24:35;96351.00;;;1.57;57.37
6218;BME280;3142;48.206;11.550;2023-04-04T04:27:02;96359.25;;;1.51;57.47
6218;BME280;3142;48.206;11.550;2023-04-04T04:29:28;96356.94;;;1.47;57.48
6218;BME280;3142;48.206;11.550;2023-04-04T04:31:56;96352.09;;;1.33;58.01
6218;BME280;3142;48.206;11.550;2023-04-04T04:34:22;96360.34;;;1.27;58.76
6218;BME280;3142;48.206;11.550;2023-04-04T04:36:49;96359.41;;;1.28;59.40
6218;BME280;3142;48.206;11.550;2023-04-04T04:39:16;96359.47;;;1.17;59.25
6218;BME280;3142;48.206;11.550;2023-04-04T04:41:43;96357.81;;;1.16;59.29
6218;BME280;3142;48.206;11.550;2023-04-04T04:44:09;96358.59;;;1.28;58.87
6218;BME280;3142;48.206;11.550;2023-04-04T04:46:36;96358.63;;;1.16;58.77
6218;BME280;3142;48.206;11.550;2023-04-04T04:49:04;96356.50;;;1.01;58.99
6218;BME280;3142;48.206;11.550;2023-04-04T04:51:30;96360.16;;;0.98;58.91
6218;BME280;3142;48.206;11.550;2023-04-04T04:53:57;96358.38;;;0.99;58.99
6218;BME280;3142;48.206;11.550;2023-04-04T04:56:23;96354.31;;;0.96;59.18
6218;BME280;3142;48.206;11.550;2023-04-04T04:58:49;96362.59;;;1.00;58.90
6218;BME280;3142;48.206;11.550;2023-04-04T05:01:16;96358.06;;;0.92;58.93
6218;BME280;3142;48.206;11.550;2023-04-04T05:03:42;96364.16;;;0.91;58.98
6218;BME280;3142;48.206;11.550;2023-04-04T05:06:10;96360.91;;;0.78;59.06
6218;BME280;3142;48.206;11.550;2023-04-04T05:08:36;96367.94;;;0.76;59.20
6218;BME280;3142;48.206;11.550;2023-04-04T05:11:03;96366.41;;;0.84;59.24
6218;BME280;3142;48.206;11.550;2023-04-04T05:13:29;96364.56;;;0.75;59.41
6218;BME280;3142;48.206;11.550;2023-04-04T05:15:56;96368.06;;;0.74;59.51
6218;BME280;3142;48.206;11.550;2023-04-04T05:18:23;96366.56;;;0.72;59.65
6218;BME280;3142;48.206;11.550;2023-04-04T05:20:51;96372.53;;;0.72;59.80
6218;BME280;3142;48.206;11.550;2023-04-04T05:23:19;96371.91;;;0.80;59.28
6218;BME280;3142;48.206;11.550;2023-04-04T05:25:47;96382.00;;;0.83;59.58
6218;BME280;3142;48.206;11.550;2023-04-04T05:28:14;96380.09;;;0.85;59.41
6218;BME280;3142;48.206;11.550;2023-04-04T05:30:40;96377.88;;;0.80;59.49
6218;BME280;3142;48.206;11.550;2023-04-04T05:33:07;96380.66;;;0.88;59.76
6218;BME280;3142;48.206;11.550;2023-04-04T05:35:33;96376.63;;;0.96;59.83
6218;BME280;3142;48.206;11.550;2023-04-04T05:37:59;96376.75;;;0.94;59.87
6218;BME280;3142;48.206;11.550;2023-04-04T05:40:27;96381.31;;;1.02;59.44
6218;BME280;3142;48.206;11.550;2023-04-04T05:42:54;96383.19;;;1.00;59.72
6218;BME280;3142;48.206;11.550;2023-04-04T05:45:21;96378.75;;;1.02;59.70
6218;BME280;3142;48.206;11.550;2023-04-04T05:47:47;96378.75;;;1.02;59.73
6218;BME280;3142;48.206;11.550;2023-04-04T05:50:14;96384.09;;;1.10;59.64
6218;BME280;3142;48.206;11.550;2023-04-04T05:52:40;96391.56;;;1.13;59.57
6218;BME280;3142;48.206;11.550;2023-04-04T05:55:07;96387.38;;;1.12;60.08
6218;BME280;3142;48.206;11.550;2023-04-04T05:57:35;96389.25;;;1.10;59.84
6218;BME280;3142;48.206;11.550;2023-04-04T06:00:02;96393.75;;;0.97;60.06
6218;BME280;3142;48.206;11.550;2023-04-04T06:02:30;96385.91;;;0.98;60.30
6218;BME280;3142;48.206;11.550;2023-04-04T06:04:56;96390.38;;;0.96;60.34
6218;BME280;3142;48.206;11.550;2023-04-04T06:07:23;96391.66;;;0.91;60.48
6218;BME280;3142;48.206;11.550;2023-04-04T06:09:49;96385.69;;;0.90;60.58
6218;BME280;3142;48.206;11.550;2023-04-04T06:12:15;96389.25;;;1.10;60.77
6218;BME280;3142;48.206;11.550;2023-04-04T06:14:43;96390.25;;;1.18;60.33
6218;BME280;3142;48.206;11.550;2023-04-04T06:17:10;96388.81;;;1.26;59.94
6218;BME280;3142;48.206;11.550;2023-04-04T06:19:36;96387.22;;;1.34;59.78
6218;BME280;3142;48.206;11.550;2023-04-04T06:22:03;96393.22;;;1.56;58.92
6218;BME280;3142;48.206;11.550;2023-04-04T06:24:29;96384.84;;;1.42;58.28
6218;BME280;3142;48.206;11.550;2023-04-04T06:26:55;96386.38;;;1.24;58.99
6218;BME280;3142;48.206;11.550;2023-04-04T06:29:22;96386.53;;;1.32;58.98
6218;BME280;3142;48.206;11.550;2023-04-04T06:31:51;96380.50;;;1.43;58.68
6218;BME280;3142;48.206;11.550;2023-04-04T06:34:20;96379.69;;;1.42;58.50
6218;BME280;3142;48.206;11.550;2023-04-04T06:36:46;96381.44;;;1.63;58.03
6218;BME280;3142;48.206;11.550;2023-04-04T06:39:13;96385.50;;;1.86;57.63
6218;BME280;3142;48.206;11.550;2023-04-04T06:41:39;96378.53;;;2.07;57.22
6218;BME280;3142;48.206;11.550;2023-04-04T06:44:06;96377.63;;;2.28;56.63
6218;BME280;3142;48.206;11.550;2023-04-04T06:46:32;96382.63;;;2.70;56.20
6218;BME280;3142;48.206;11.550;2023-04-04T06:49:00;96377.59;;;3.26;54.41
6218;BME280;3142;48.206;11.550;2023-04-04T06:51:27;96372.78;;;3.50;52.50
6218;BME280;3142;48.206;11.550;2023-04-04T06:53:54;96362.00;;;3.65;52.23
6218;BME280;3142;48.206;11.550;2023-04-04T06:56:20;96369.78;;;4.02;50.17
6218;BME280;3142;48.206;11.550;2023-04-04T06:58:47;96363.00;;;4.28;50.20
6218;BME280;3142;48.206;11.550;2023-04-04T07:01:15;96360.59;;;4.44;49.24
6218;BME280;3142;48.206;11.550;2023-04-04T07:03:41;96358.63;;;4.74;47.85
6218;BME280;3142;48.206;11.550;2023-04-04T07:06:10;96363.44;;;5.22;47.77
6218;BME280;3142;48.206;11.550;2023-04-04T07:08:36;96355.19;;;5.71;46.79
6218;BME280;3142;48.206;11.550;2023-04-04T07:11:03;96348.88;;;5.99;46.24
6218;BME280;3142;48.206;11.550;2023-04-04T07:13:30;96359.78;;;6.45;44.82
6218;BME280;3142;48.206;11.550;2023-04-04T07:15:56;96352.75;;;6.96;44.11
6218;BME280;3142;48.206;11.550;2023-04-04T07:18:23;96350.97;;;7.12;43.17
6218;BME280;3142;48.206;11.550;2023-04-04T07:20:49;96353.25;;;7.16;41.23
6218;BME280;3142;48.206;11.550;2023-04-04T07:23:17;96355.69;;;7.33;41.07
6218;BME280;3142;48.206;11.550;2023-04-04T07:25:44;96357.13;;;7.11;39.85
6218;BME280;3142;48.206;11.550;2023-04-04T07:28:10;96357.81;;;7.46;39.58
6218;BME280;3142;48.206;11.550;2023-04-04T07:30:36;96358.22;;;7.90;38.59
6218;BME280;3142;48.206;11.550;2023-04-04T07:33:03;96348.19;;;7.71;38.26
6218;BME280;3142;48.206;11.550;2023-04-04T07:35:29;96346.13;;;8.06;38.92
6218;BME280;3142;48.206;11.550;2023-04-04T07:37:56;96343.22;;;8.79;38.82
6218;BME280;3142;48.206;11.550;2023-04-04T07:40:24;96344.69;;;9.65;36.77
6218;BME280;3142;48.206;11.550;2023-04-04T07:42:51;96337.63;;;10.32;35.79
6218;BME280;3142;48.206;11.550;2023-04-04T07:45:19;96340.03;;;11.06;35.19
6218;BME280;3142;48.206;11.550;2023-04-04T07:47:46;96338.38;;;11.69;33.71
6218;BME280;3142;48.206;11.550;2023-04-04T07:50:13;96344.13;;;11.58;33.58
6218;BME280;3142;48.206;11.550;2023-04-04T07:52:39;96335.94;;;11.40;32.49
6218;BME280;3142;48.206;11.550;2023-04-04T07:55:06;96341.47;;;11.30;33.66
6218;BME280;3142;48.206;11.550;2023-04-04T07:57:37;96338.22;;;11.77;33.04
6218;BME280;3142;48.206;11.550;2023-04-04T08:00:06;96335.91;;;11.89;31.65
6218;BME280;3142;48.206;11.550;2023-04-04T08:02:33;96330.03;;;11.59;31.65
6218;BME280;3142;48.206;11.550;2023-04-04T08:05:00;96338.50;;;11.61;31.98
6218;BME280;3142;48.206;11.550;2023-04-04T08:07:26;96333.94;;;11.70;31.38
6218;BME280;3142;48.206;11.550;2023-04-04T08:09:53;96340.88;;;11.28;31.08
6218;BME280;3142;48.206;11.550;2023-04-04T08:12:19;96334.38;;;11.03;32.05
6218;BME280;3142;48.206;11.550;2023-04-04T08:14:47;96335.81;;;11.26;32.79
6218;BME280;3142;48.206;11.550;2023-04-04T08:17:13;96339.94;;;10.27;33.56
6218;BME280;3142;48.206;11.550;2023-04-04T08:19:43;96347.47;;;10.66;32.12
6218;BME280;3142;48.206;11.550;2023-04-04T08:22:09;96339.81;;;10.65;32.59
6218;BME280;3142;48.206;11.550;2023-04-04T08:24:36;96345.78;;;9.85;33.38
6218;BME280;3142;48.206;11.550;2023-04-04T08:27:03;96352.34;;;9.66;34.76
6218;BME280;3142;48.206;11.550;2023-04-04T08:29:30;96337.34;;;10.78;32.76
6218;BME280;3142;48.206;11.550;2023-04-04T08:31:58;96339.97;;;11.42;31.12
6218;BME280;3142;48.206;11.550;2023-04-04T08:34:24;96338.47;;;10.54;32.91
6218;BME280;3142;48.206;11.550;2023-04-04T08:36:51;96350.66;;;9.73;34.41
6218;BME280;3142;48.206;11.550;2023-04-04T08:39:17;96341.28;;;9.94;34.39
6218;BME280;3142;48.206;11.550;2023-04-04T08:41:44;96343.84;;;10.31;33.44
6218;BME280;3142;48.206;11.550;2023-04-04T08:44:15;96337.59;;;10.47;33.55
6218;BME280;3142;48.206;11.550;2023-04-04T08:46:43;96343.09;;;10.08;33.60
6218;BME280;3142;48.206;11.550;2023-04-04T08:49:13;96350.25;;;8.78;33.23
6218;BME280;3142;48.206;11.550;2023-04-04T08:51:41;96345.53;;;7.87;35.71
6218;BME280;3142;48.206;11.550;2023-04-04T08:54:08;96339.06;;;8.61;34.93
6218;BME280;3142;48.206;11.550;2023-04-04T08:56:36;96340.78;;;7.99;35.23
6218;BME280;3142;48.206;11.550;2023-04-04T08:59:02;96343.47;;;9.53;33.60
6218;BME280;3142;48.206;11.550;2023-04-04T09:01:29;96351.59;;;8.97;33.60
6218;BME280;3142;48.206;11.550;2023-04-04T09:03:56;96356.00;;;8.26;35.21
6218;BME280;3142;48.206;11.550;2023-04-04T09:06:24;96353.75;;;7.43;33.84
6218;BME280;3142;48.206;11.550;2023-04-04T09:08:52;96363.09;;;6.71;35.44
6218;BME280;3142;48.206;11.550;2023-04-04T09:11:21;96363.28;;;6.28;35.66
6218;BME280;3142;48.206;11.550;2023-04-04T09:13:49;96370.63;;;5.98;35.99
6218;BME280;3142;48.206;11.550;2023-04-04T09:16:16;96360.69;;;5.68;36.52
6218;BME280;3142;48.206;11.550;2023-04-04T09:18:42;96364.16;;;5.76;37.59
6218;BME280;3142;48.206;11.550;2023-04-04T09:21:10;96363.97;;;5.52;37.74
6218;BME280;3142;48.206;11.550;2023-04-04T09:23:38;96364.81;;;5.52;37.71
6218;BME280;3142;48.206;11.550;2023-04-04T09:26:05;96368.97;;;5.71;38.05
6218;BME280;3142;48.206;11.550;2023-04-04T09:28:32;96370.38;;;5.40;37.19
6218;BME280;3142;48.206;11.550;2023-04-04T09:31:00;96371.81;;;5.16;38.30
6218;BME280;3142;48.206;11.550;2023-04-04T09:33:27;96375.28;;;5.25;38.97
6218;BME280;3142;48.206;11.550;2023-04-04T09:35:55;96373.31;;;5.62;39.54
6218;BME280;3142;48.206;11.550;2023-04-04T09:38:23;96369.75;;;5.89;39.26
6218;BME280;3142;48.206;11.550;2023-04-04T09:40:53;96371.72;;;6.21;38.38
6218;BME280;3142;48.206;11.550;2023-04-04T09:43:21;96371.53;;;6.65;37.61
6218;BME280;3142;48.206;11.550;2023-04-04T09:45:48;96367.38;;;7.54;35.81
6218;BME280;3142;48.206;11.550;2023-04-04T09:48:24;96366.03;;;6.84;36.08
6218;BME280;3142;48.206;11.550;2023-04-04T09:50:51;96367.72;;;6.35;36.62
6218;BME280;3142;48.206;11.550;2023-04-04T09:53:18;96371.56;;;6.23;37.14
6218;BME280;3142;48.206;11.550;2023-04-04T09:55:49;96365.75;;;7.04;37.84
6218;BME280;3142;48.206;11.550;2023-04-04T09:58:19;96370.28;;;6.77;36.55
6218;BME280;3142;48.206;11.550;2023-04-04T10:00:51;96370.97;;;7.12;35.54
6218;BME280;3142;48.206;11.550;2023-04-04T10:03:21;96369.72;;;8.90;33.73
6218;BME280;3142;48.206;11.550;2023-04-04T10:05:54;96358.25;;;10.57;32.80
6218;BME280;3142;48.206;11.550;2023-04-04T10:08:21;96359.31;;;9.74;33.28
6218;BME280;3142;48.206;11.550;2023-04-04T10:10:48;96368.41;;;8.95;33.88
6218;BME280;3142;48.206;11.550;2023-04-04T10:13:23;96371.88;;;8.56;34.35
6218;BME280;3142;48.206;11.550;2023-04-04T10:15:50;96365.97;;;9.16;33.72
6218;BME280;3142;48.206;11.550;2023-04-04T10:18:18;96364.59;;;8.74;34.08
6218;BME280;3142;48.206;11.550;2023-04-04T10:20:48;96362.94;;;9.04;33.00
6218;BME280;3142;48.206;11.550;2023-04-04T10:23:15;96367.88;;;8.37;33.47
6218;BME280;3142;48.206;11.550;2023-04-04T10:25:41;96362.56;;;8.14;34.28
6218;BME280;3142;48.206;11.550;2023-04-04T10:28:08;96367.06;;;7.81;36.20
6218;BME280;3142;48.206;11.550;2023-04-04T10:30:39;96369.50;;;7.50;35.59
6218;BME280;3142;48.206;11.550;2023-04-04T10:33:09;96375.06;;;7.15;35.94
6218;BME280;3142;48.206;11.550;2023-04-04T10:35:40;96375.34;;;7.11;35.10
6218;BME280;3142;48.206;11.550;2023-04-04T10:38:10;96369.97;;;6.97;35.70
6218;BME280;3142;48.206;11.550;2023-04-04T10:40:39;96376.16;;;6.88;35.69
6218;BME280;3142;48.206;11.550;2023-04-04T10:43:09;96369.81;;;6.90;36.32
6218;BME280;3142;48.206;11.550;2023-04-04T10:45:39;96366.91;;;9.23;33.55
6218;BME280;3142;48.206;11.550;2023-04-04T10:48:06;96364.38;;;9.53;33.10
6218;BME280;3142;48.206;11.550;2023-04-04T10:50:34;96360.59;;;8.16;33.60
6218;BME280;3142;48.206;11.550;2023-04-04T10:53:01;96359.09;;;7.34;35.49
6218;BME280;3142;48.206;11.550;2023-04-04T10:55:29;96360.41;;;7.30;36.12
6218;BME280;3142;48.206;11.550;2023-04-04T10:57:57;96362.22;;;7.29;36.39
6218;BME280;3142;48.206;11.550;2023-04-04T11:00:24;96369.34;;;7.35;35.80
6218;BME280;3142;48.206;11.550;2023-04-04T11:02:54;96361.88;;;7.49;36.03
6218;BME280;3142;48.206;11.550;2023-04-04T11:05:23;96357.00;;;7.46;35.80
6218;BME280;3142;48.206;11.550;2023-04-04T11:07:53;96355.66;;;7.74;36.23
6218;BME280;3142;48.206;11.550;2023-04-04T11:10:22;96353.84;;;7.75;37.22
6218;BME280;3142;48.206;11.550;2023-04-04T11:12:52;96348.19;;;7.47;36.99
6218;BME280;3142;48.206;11.550;2023-04-04T11:15:21;96346.41;;;7.47;36.49
6218;BME280;3142;48.206;11.550;2023-04-04T11:18:00;96348.53;;;7.43;35.68
6218;BME280;3142;48.206;11.550;2023-04-04T11:20:33;96347.38;;;7.62;37.08
6218;BME280;3142;48.206;11.550;2023-04-04T11:23:04;96336.06;;;9.94;34.53
6218;BME280;3142;48.206;11.550;2023-04-04T11:25:35;96332.00;;;11.29;31.96
6218;BME280;3142;48.206;11.550;2023-04-04T11:28:06;96317.47;;;11.05;31.63
6218;BME280;3142;48.206;11.550;2023-04-04T11:30:37;96315.97;;;11.17;30.50
6218;BME280;3142;48.206;11.550;2023-04-04T11:33:10;96316.56;;;11.90;30.29
6218;BME280;3142;48.206;11.550;2023-04-04T11:35:38;96316.06;;;12.49;29.38
6218;BME280;3142;48.206;11.550;2023-04-04T11:38:12;96313.81;;;12.46;30.03
6218;BME280;3142;48.206;11.550;2023-04-04T11:40:39;96314.16;;;12.91;28.19
6218;BME280;3142;48.206;11.550;2023-04-04T11:43:08;96309.28;;;12.81;28.51
6218;BME280;3142;48.206;11.550;2023-04-04T11:45:35;96312.19;;;12.45;28.14
6218;BME280;3142;48.206;11.550;2023-04-04T11:48:04;96310.53;;;12.31;27.97
6218;BME280;3142;48.206;11.550;2023-04-04T11:50:37;96320.09;;;10.84;30.34
6218;BME280;3142;48.206;11.550;2023-04-04T11:53:05;96318.44;;;9.58;31.09
6218;BME280;3142;48.206;11.550;2023-04-04T11:55:32;96322.47;;;9.08;33.77
6218;BME280;3142;48.206;11.550;2023-04-04T11:58:05;96315.69;;;9.22;32.57
6218;BME280;3142;48.206;11.550;2023-04-04T12:00:34;96313.78;;;9.68;32.58
6218;BME280;3142;48.206;11.550;2023-04-04T12:03:02;96309.91;;;9.94;33.11
6218;BME280;3142;48.206;11.550;2023-04-04T12:05:30;96324.16;;;9.76;33.18
6218;BME280;3142;48.206;11.550;2023-04-04T12:07:58;96317.09;;;9.47;33.20
6218;BME280;3142;48.206;11.550;2023-04-04T12:10:28;96319.09;;;9.60;33.58
6218;BME280;3142;48.206;11.550;2023-04-04T12:12:56;96322.28;;;9.10;33.79
6218;BME280;3142;48.206;11.550;2023-04-04T12:15:23;96318.69;;;8.88;34.73
6218;BME280;3142;48.206;11.550;2023-04-04T12:17:52;96315.13;;;8.58;35.09
6218;BME280;3142;48.206;11.550;2023-04-04T12:20:21;96314.53;;;8.48;34.39
6218;BME280;3142;48.206;11.550;2023-04-04T12:22:48;96310.94;;;8.49;34.81
6218;BME280;3142;48.206;11.550;2023-04-04T12:25:17;96314.50;;;9.02;35.58
6218;BME280;3142;48.206;11.550;2023-04-04T12:27:45;96318.38;;;8.91;32.91
6218;BME280;3142;48.206;11.550;2023-04-04T12:30:13;96319.97;;;8.30;34.50
6218;BME280;3142;48.206;11.550;2023-04-04T12:32:41;96312.47;;;7.96;34.67
6218;BME280;3142;48.206;11.550;2023-04-04T12:35:09;96317.09;;;8.17;34.50
6218;BME280;3142;48.206;11.550;2023-04-04T12:37:36;96307.72;;;8.70;36.11
6218;BME280;3142;48.206;11.550;2023-04-04T12:40:03;96313.34;;;9.27;35.44
6218;BME280;3142;48.206;11.550;2023-04-04T12:42:33;96306.09;;;9.52;35.11
6218;BME280;3142;48.206;11.550;2023-04-04T12:45:01;96309.88;;;9.49;34.51
6218;BME280;3142;48.206;11.550;2023-04-04T12:47:29;96298.19;;;9.60;35.14
6218;BME280;3142;48.206;11.550;2023-04-04T12:49:56;96300.53;;;9.55;35.01
6218;BME280;3142;48.206;11.550;2023-04-04T12:52:27;96297.56;;;9.73;34.44
6218;BME280;3142;48.206;11.550;2023-04-04T12:54:57;96308.13;;;9.27;34.18
6218;BME280;3142;48.206;11.550;2023-04-04T12:57:25;96311.00;;;8.95;34.29
6218;BME280;3142;48.206;11.550;2023-04-04T12:59:54;96306.78;;;8.63;34.13
6218;BME280;3142;48.206;11.550;2023-04-04T13:02:21;96303.78;;;8.74;35.18
6218;BME280;3142;48.206;11.550;2023-04-04T13:04:52;96307.09;;;8.68;34.96
6218;BME280;3142;48.206;11.550;2023-04-04T13:07:20;96300.50;;;8.80;35.35
6218;BME280;3142;48.206;11.550;2023-04-04T13:09:51;96303.44;;;8.77;34.72
6218;BME280;3142;48.206;11.550;2023-04-04T13:12:18;96298.75;;;8.95;35.79
6218;BME280;3142;48.206;11.550;2023-04-04T13:14:56;96292.16;;;9.07;35.81
6218;BME280;3142;48.206;11.550;2023-04-04T13:17:23;96301.38;;;8.95;35.38
6218;BME280;3142;48.206;11.550;2023-04-04T13:19:50;96294.06;;;8.68;34.29
6218;BME280;3142;48.206;11.550;2023-04-04T13:22:17;96302.09;;;8.19;34.43